sensor_id;sensor_type;location;lat;lon;timestamp;pressure;altitude;pressure_sealevel;temperature;humidity
64844;BME280;51310;52.198;5.422;2023-05-21T00:01:42;101745.47;;;14.24;100.00
64844;BME280;51310;52.198;5.422;2023-05-21T00:04:08;101748.03;;;14.24;100.00
64844;BME280;51310;52.198;5.422;2023-05-21T00:06:34;101741.63;;;14.29;100.00
64844;BME280;51310;52.198;5.422;2023-05-21T00:09:04;101744.69;;;14.25;100.00
64844;BME280;51310;52.198;5.422;2023-05-21T00:11:31;101736.19;;;14.17;100.00
64844;BME280;51310;52.198;5.422;2023-05-21T00:13:57;101730.41;;;14.11;100.00
64844;BME280;51310;52.198;5.422;2023-05-21T00:16:24;101730.56;;;14.12;100.00
64844;BME280;51310;52.198;5.422;2023-05-21T00:18:50;101734.53;;;14.09;100.00
64844;BME280;51310;52.198;5.422;2023-05-21T00:21:16;101733.75;;;14.10;100.00
64844;BME280;51310;52.198;5.422;2023-05-21T00:23:49;101733.31;;;14.05;100.00
64844;BME280;51310;52.198;5.422;2023-05-21T00:26:15;101737.28;;;14.10;100.00
64844;BME280;51310;52.198;5.422;2023-05-21T00:28:41;101736.34;;;14.10;100.00
64844;BME280;51310;52.198;5.422;2023-05-21T00:31:06;101728.88;;;14.13;100.00
64844;BME280;51310;52.198;5.422;2023-05-21T00:33:32;101724.16;;;14.09;100.00
64844;BME280;51310;52.198;5.422;2023-05-21T00:35:58;101726.13;;;14.11;100.00
64844;BME280;51310;52.198;5.422;2023-05-21T00:38:24;101726.59;;;14.07;100.00
64844;BME280;51310;52.198;5.422;2023-05-21T00:40:52;101718.56;;;14.04;100.00
64844;BME280;51310;52.198;5.422;2023-05-21T00:43:18;101724.19;;;14.00;100.00
64844;BME280;51310;52.198;5.422;2023-05-21T00:45:43;101722.34;;;13.99;100.00
64844;BME280;51310;52.198;5.422;2023-05-21T00:48:12;101720.38;;;13.97;100.00
64844;BME280;51310;52.198;5.422;2023-05-21T00:50:38;101708.97;;;13.94;100.00
64844;BME280;51310;52.198;5.422;2023-05-21T00:53:06;101706.84;;;13.90;100.00
64844;BME280;51310;52.198;5.422;2023-05-21T00:55:36;101707.00;;;13.92;100.00
64844;BME280;51310;52.198;5.422;2023-05-21T00:58:02;101708.06;;;13.94;100.00
64844;BME280;51310;52.198;5.422;2023-05-21T01:00:32;101706.25;;;13.84;100.00
64844;BME280;51310;52.198;5.422;2023-05-21T01:03:02;101708.69;;;13.91;100.00
64844;BME280;51310;52.198;5.422;2023-05-21T01:05:29;101710.50;;;13.84;100.00
64844;BME280;51310;52.198;5.422;2023-05-21T01:07:56;101715.41;;;13.81;100.00
64844;BME280;51310;52.198;5.422;2023-05-21T01:10:24;101704.59;;;13.76;100.00
64844;BME280;51310;52.198;5.422;2023-05-21T01:12:51;101707.19;;;13.76;100.00
64844;BME280;51310;52.198;5.422;2023-05-21T01:15:19;101694.88;;;13.82;100.00
64844;BME280;51310;52.198;5.422;2023-05-21T01:17:46;101707.03;;;13.74;100.00
64844;BME280;51310;52.198;5.422;2023-05-21T01:20:15;101701.41;;;13.70;100.00
64844;BME280;51310;52.198;5.422;2023-05-21T01:22:55;101701.69;;;13.73;100.00
64844;BME280;51310;52.198;5.422;2023-05-21T01:25:22;101694.84;;;13.73;100.00
64844;BME280;51310;52.198;5.422;2023-05-21T01:27:49;101689.66;;;13.73;100.00
64844;BME280;51310;52.198;5.422;2023-05-21T01:30:17;101688.31;;;13.77;100.00
64844;BME280;51310;52.198;5.422;2023-05-21T01:33:24;101683.16;;;13.68;100.00
64844;BME280;51310;52.198;5.422;2023-05-21T01:36:31;101685.13;;;13.71;100.00
64844;BME280;51310;52.198;5.422;2023-05-21T01:39:08;101683.31;;;13.70;100.00
64844;BME280;51310;52.198;5.422;2023-05-21T01:41:44;101676.91;;;13.66;100.00
64844;BME280;51310;52.198;5.422;2023-05-21T01:44:11;101686.06;;;13.71;100.00
64844;BME280;51310;52.198;5.422;2023-05-21T01:46:38;101687.59;;;13.69;100.00
64844;BME280;51310;52.198;5.422;2023-05-21T01:49:06;101691.69;;;13.67;100.00
64844;BME280;51310;52.198;5.422;2023-05-21T01:51:33;101684.84;;;13.68;100.00
64844;BME280;51310;52.198;5.422;2023-05-21T01:53:59;101680.28;;;13.65;100.00
64844;BME280;51310;52.198;5.422;2023-05-21T01:56:24;101690.63;;;13.65;100.00
64844;BME280;51310;52.198;5.422;2023-05-21T01:58:54;101693.50;;;13.60;100.00
64844;BME280;51310;52.198;5.422;2023-05-21T02:01:21;101693.50;;;13.60;100.00
64844;BME280;51310;52.198;5.422;2023-05-21T02:03:47;101691.81;;;13.60;100.00
64844;BME280;51310;52.198;5.422;2023-05-21T02:06:12;101689.41;;;13.62;100.00
64844;BME280;51310;52.198;5.422;2023-05-21T02:08:38;101683.00;;;13.58;100.00
64844;BME280;51310;52.198;5.422;2023-05-21T02:11:04;101681.47;;;13.60;100.00
64844;BME280;51310;52.198;5.422;2023-05-21T02:13:30;101682.09;;;13.58;100.00
64844;BME280;51310;52.198;5.422;2023-05-21T02:15:56;101684.69;;;13.58;100.00
64844;BME280;51310;52.198;5.422;2023-05-21T02:18:22;101681.81;;;13.54;100.00
64844;BME280;51310;52.198;5.422;2023-05-21T02:20:49;101682.88;;;13.57;100.00
64844;BME280;51310;52.198;5.422;2023-05-21T02:23:14;101685.00;;;13.61;100.00
64844;BME280;51310;52.198;5.422;2023-05-21T02:25:40;101683.00;;;13.49;100.00
64844;BME280;51310;52.198;5.422;2023-05-21T02:28:06;101681.19;;;13.57;100.00
64844;BME280;51310;52.198;5.422;2023-05-21T02:30:32;101685.47;;;13.48;100.00
64844;BME280;51310;52.198;5.422;2023-05-21T02:32:57;101685.31;;;13.38;100.00
64844;BME280;51310;52.198;5.422;2023-05-21T02:35:23;101687.59;;;13.34;100.00
64844;BME280;51310;52.198;5.422;2023-05-21T02:37:49;101680.44;;;13.41;100.00
64844;BME280;51310;52.198;5.422;2023-05-21T02:40:15;101684.41;;;13.28;100.00
64844;BME280;51310;52.198;5.422;2023-05-21T02:42:41;101683.19;;;13.33;100.00
64844;BME280;51310;52.198;5.422;2023-05-21T02:45:08;101684.88;;;13.33;100.00
64844;BME280;51310;52.198;5.422;2023-05-21T02:47:35;101690.31;;;13.36;100.00
64844;BME280;51310;52.198;5.422;2023-05-21T02:50:01;101686.50;;;13.32;100.00
64844;BME280;51310;52.198;5.422;2023-05-21T02:52:27;101680.31;;;13.30;100.00
64844;BME280;51310;52.198;5.422;2023-05-21T02:54:53;101682.53;;;13.27;100.00
64844;BME280;51310;52.198;5.422;2023-05-21T02:57:18;101686.38;;;13.31;100.00
64844;BME280;51310;52.198;5.422;2023-05-21T02:59:44;101688.81;;;13.29;100.00
64844;BME280;51310;52.198;5.422;2023-05-21T03:02:11;101689.69;;;13.21;100.00
64844;BME280;51310;52.198;5.422;2023-05-21T03:04:36;101691.81;;;13.17;100.00
64844;BME280;51310;52.198;5.422;2023-05-21T03:07:04;101691.53;;;13.13;100.00
64844;BME280;51310;52.198;5.422;2023-05-21T03:09:30;101685.91;;;13.18;100.00
64844;BME280;51310;52.198;5.422;2023-05-21T03:11:56;101680.72;;;13.18;100.00
64844;BME280;51310;52.198;5.422;2023-05-21T03:14:21;101683.59;;;13.12;100.00
64844;BME280;51310;52.198;5.422;2023-05-21T03:16:49;101689.56;;;13.20;100.00
64844;BME280;51310;52.198;5.422;2023-05-21T03:19:15;101693.66;;;13.09;100.00
64844;BME280;51310;52.198;5.422;2023-05-21T03:21:41;101690.13;;;13.00;100.00
64844;BME280;51310;52.198;5.422;2023-05-21T03:24:07;101686.34;;;13.05;100.00
64844;BME280;51310;52.198;5.422;2023-05-21T03:26:34;101686.47;;;12.98;100.00
64844;BME280;51310;52.198;5.422;2023-05-21T03:29:00;101681.00;;;13.03;100.00
64844;BME280;51310;52.198;5.422;2023-05-21T03:31:26;101669.63;;;13.10;100.00
64844;BME280;51310;52.198;5.422;2023-05-21T03:33:52;101676.75;;;13.04;100.00
64844;BME280;51310;52.198;5.422;2023-05-21T03:36:18;101673.53;;;12.98;100.00
64844;BME280;51310;52.198;5.422;2023-05-21T03:38:44;101677.97;;;12.90;100.00
64844;BME280;51310;52.198;5.422;2023-05-21T03:41:10;101674.94;;;13.03;100.00
64844;BME280;51310;52.198;5.422;2023-05-21T03:43:36;101670.22;;;13.07;100.00
64844;BME280;51310;52.198;5.422;2023-05-21T03:46:02;101669.59;;;13.01;100.00
64844;BME280;51310;52.198;5.422;2023-05-21T03:48:28;101672.47;;;13.04;100.00
64844;BME280;51310;52.198;5.422;2023-05-21T03:50:53;101664.25;;;12.91;100.00
64844;BME280;51310;52.198;5.422;2023-05-21T03:53:20;101670.50;;;13.02;100.00
64844;BME280;51310;52.198;5.422;2023-05-21T03:55:45;101675.06;;;12.96;100.00
64844;BME280;51310;52.198;5.422;2023-05-21T03:58:20;101666.56;;;12.97;100.00
64844;BME280;51310;52.198;5.422;2023-05-21T04:00:46;101668.38;;;12.98;100.00
64844;BME280;51310;52.198;5.422;2023-05-21T04:03:13;101663.53;;;12.92;100.00
64844;BME280;51310;52.198;5.422;2023-05-21T04:05:41;101663.19;;;12.89;100.00
64844;BME280;51310;52.198;5.422;2023-05-21T04:08:07;101656.22;;;13.05;100.00
64844;BME280;51310;52.198;5.422;2023-05-21T04:10:33;101670.97;;;12.98;100.00
64844;BME280;51310;52.198;5.422;2023-05-21T04:12:59;101660.78;;;12.99;100.00
64844;BME280;51310;52.198;5.422;2023-05-21T04:15:25;101663.09;;;13.05;100.00
64844;BME280;51310;52.198;5.422;2023-05-21T04:17:52;101668.53;;;12.99;100.00
64844;BME280;51310;52.198;5.422;2023-05-21T04:20:19;101672.34;;;13.03;100.00
64844;BME280;51310;52.198;5.422;2023-05-21T04:22:45;101655.91;;;13.02;100.00
64844;BME280;51310;52.198;5.422;2023-05-21T04:25:11;101662.63;;;12.91;100.00
64844;BME280;51310;52.198;5.422;2023-05-21T04:27:37;101660.63;;;12.89;100.00
64844;BME280;51310;52.198;5.422;2023-05-21T04:30:03;101663.81;;;12.86;100.00
64844;BME280;51310;52.198;5.422;2023-05-21T04:32:30;101667.63;;;12.90;100.00
64844;BME280;51310;52.198;5.422;2023-05-21T04:34:57;101672.47;;;12.96;100.00
64844;BME280;51310;52.198;5.422;2023-05-21T04:37:28;101669.75;;;12.85;100.00
64844;BME280;51310;52.198;5.422;2023-05-21T04:39:56;101668.25;;;12.96;100.00
64844;BME280;51310;52.198;5.422;2023-05-21T04:42:22;101682.34;;;12.91;100.00
64844;BME280;51310;52.198;5.422;2023-05-21T04:44:50;101682.38;;;13.00;100.00
64844;BME280;51310;52.198;5.422;2023-05-21T04:47:16;101682.81;;;12.96;100.00
64844;BME280;51310;52.198;5.422;2023-05-21T04:49:45;101685.53;;;12.88;100.00
64844;BME280;51310;52.198;5.422;2023-05-21T04:52:15;101682.66;;;12.85;100.00
64844;BME280;51310;52.198;5.422;2023-05-21T04:54:41;101685.72;;;12.90;100.00
64844;BME280;51310;52.198;5.422;2023-05-21T04:57:07;101681.91;;;12.95;100.00
64844;BME280;51310;52.198;5.422;2023-05-21T04:59:34;101685.09;;;12.92;100.00
64844;BME280;51310;52.198;5.422;2023-05-21T05:02:00;101685.09;;;12.84;100.00
64844;BME280;51310;52.198;5.422;2023-05-21T05:04:25;101693.91;;;12.95;100.00
64844;BME280;51310;52.198;5.422;2023-05-21T05:06:51;101687.25;;;12.97;100.00
64844;BME280;51310;52.198;5.422;2023-05-21T05:09:18;101686.91;;;13.02;100.00
64844;BME280;51310;52.198;5.422;2023-05-21T05:11:45;101688.13;;;12.97;100.00
64844;BME280;51310;52.198;5.422;2023-05-21T05:14:11;101688.13;;;12.97;100.00
64844;BME280;51310;52.198;5.422;2023-05-21T05:16:37;101682.09;;;13.14;100.00
64844;BME280;51310;52.198;5.422;2023-05-21T05:19:02;101688.00;;;13.04;100.00
64844;BME280;51310;52.198;5.422;2023-05-21T05:21:28;101687.69;;;13.10;100.00
64844;BME280;51310;52.198;5.422;2023-05-21T05:23:54;101686.63;;;13.08;100.00
64844;BME280;51310;52.198;5.422;2023-05-21T05:26:19;101676.75;;;13.12;100.00
64844;BME280;51310;52.198;5.422;2023-05-21T05:28:46;101680.84;;;13.19;100.00
64844;BME280;51310;52.198;5.422;2023-05-21T05:31:11;101679.78;;;13.08;100.00
64844;BME280;51310;52.198;5.422;2023-05-21T05:33:37;101669.00;;;13.12;100.00
64844;BME280;51310;52.198;5.422;2023-05-21T05:36:03;101676.13;;;13.24;100.00
64844;BME280;51310;52.198;5.422;2023-05-21T05:38:29;101679.53;;;13.31;100.00
64844;BME280;51310;52.198;5.422;2023-05-21T05:40:55;101674.16;;;13.21;100.00
64844;BME280;51310;52.198;5.422;2023-05-21T05:43:21;101679.94;;;13.19;100.00
64844;BME280;51310;52.198;5.422;2023-05-21T05:45:47;101688.78;;;13.21;100.00
64844;BME280;51310;52.198;5.422;2023-05-21T05:48:12;101682.69;;;13.20;100.00
64844;BME280;51310;52.198;5.422;2023-05-21T05:50:38;101687.00;;;13.28;100.00
64844;BME280;51310;52.198;5.422;2023-05-21T05:53:04;101683.63;;;13.29;100.00
64844;BME280;51310;52.198;5.422;2023-05-21T05:55:29;101674.78;;;13.19;100.00
64844;BME280;51310;52.198;5.422;2023-05-21T05:57:55;101673.75;;;13.34;100.00
64844;BME280;51310;52.198;5.422;2023-05-21T06:00:21;101670.09;;;13.49;100.00
64844;BME280;51310;52.198;5.422;2023-05-21T06:02:47;101669.81;;;13.29;100.00
64844;BME280;51310;52.198;5.422;2023-05-21T06:05:13;101671.50;;;13.28;100.00
64844;BME280;51310;52.198;5.422;2023-05-21T06:07:39;101657.31;;;13.42;100.00
64844;BME280;51310;52.198;5.422;2023-05-21T06:10:06;101658.38;;;13.44;100.00
64844;BME280;51310;52.198;5.422;2023-05-21T06:12:32;101668.13;;;13.47;100.00
64844;BME280;51310;52.198;5.422;2023-05-21T06:14:58;101659.28;;;13.45;100.00
64844;BME280;51310;52.198;5.422;2023-05-21T06:17:24;101663.53;;;13.62;100.00
64844;BME280;51310;52.198;5.422;2023-05-21T06:19:50;101659.59;;;13.65;100.00
64844;BME280;51310;52.198;5.422;2023-05-21T06:22:16;101655.28;;;13.74;100.00
64844;BME280;51310;52.198;5.422;2023-05-21T06:24:42;101656.34;;;13.77;100.00
64844;BME280;51310;52.198;5.422;2023-05-21T06:27:07;101648.28;;;13.82;100.00
64844;BME280;51310;52.198;5.422;2023-05-21T06:29:33;101655.84;;;13.98;100.00
64844;BME280;51310;52.198;5.422;2023-05-21T06:31:59;101653.84;;;14.04;100.00
64844;BME280;51310;52.198;5.422;2023-05-21T06:34:26;101652.47;;;13.99;100.00
64844;BME280;51310;52.198;5.422;2023-05-21T06:36:53;101650.06;;;13.92;100.00
64844;BME280;51310;52.198;5.422;2023-05-21T06:39:19;101652.44;;;14.08;100.00
64844;BME280;51310;52.198;5.422;2023-05-21T06:41:45;101649.34;;;14.21;100.00
64844;BME280;51310;52.198;5.422;2023-05-21T06:44:10;101650.97;;;14.29;100.00
64844;BME280;51310;52.198;5.422;2023-05-21T06:46:36;101649.50;;;14.22;100.00
64844;BME280;51310;52.198;5.422;2023-05-21T06:49:02;101643.53;;;14.32;100.00
64844;BME280;51310;52.198;5.422;2023-05-21T06:51:31;101645.00;;;14.39;100.00
64844;BME280;51310;52.198;5.422;2023-05-21T07:05:39;101864.03;;;17.60;52.73
64844;BME280;51310;52.198;5.422;2023-05-21T07:08:05;101870.00;;;15.70;59.42
64844;BME280;51310;52.198;5.422;2023-05-21T07:10:31;101875.53;;;15.21;63.70
64844;BME280;51310;52.198;5.422;2023-05-21T07:12:56;101873.38;;;15.34;65.19
64844;BME280;51310;52.198;5.422;2023-05-21T07:15:22;101864.41;;;14.89;66.09
64844;BME280;51310;52.198;5.422;2023-05-21T07:17:48;101854.84;;;14.86;66.80
64844;BME280;51310;52.198;5.422;2023-05-21T07:20:13;101865.09;;;14.91;67.72
64844;BME280;51310;52.198;5.422;2023-05-21T07:22:40;101845.81;;;15.07;67.79
64844;BME280;51310;52.198;5.422;2023-05-21T07:25:08;101869.38;;;15.21;67.58
64844;BME280;51310;52.198;5.422;2023-05-21T07:27:34;101866.53;;;15.32;67.52
64844;BME280;51310;52.198;5.422;2023-05-21T07:30:00;101867.50;;;15.58;67.48
64844;BME280;51310;52.198;5.422;2023-05-21T07:32:25;101854.31;;;15.57;67.01
64844;BME280;51310;52.198;5.422;2023-05-21T07:34:54;101874.97;;;15.65;67.07
64844;BME280;51310;52.198;5.422;2023-05-21T07:37:20;101849.59;;;15.41;66.86
64844;BME280;51310;52.198;5.422;2023-05-21T07:39:46;101866.50;;;15.69;66.84
64844;BME280;51310;52.198;5.422;2023-05-21T07:42:12;101860.81;;;15.82;66.60
64844;BME280;51310;52.198;5.422;2023-05-21T07:44:37;101866.97;;;15.82;66.27
64844;BME280;51310;52.198;5.422;2023-05-21T07:47:03;101862.75;;;15.89;66.49
64844;BME280;51310;52.198;5.422;2023-05-21T07:49:29;101866.97;;;15.65;66.12
64844;BME280;51310;52.198;5.422;2023-05-21T07:51:55;101851.09;;;15.63;66.87
64844;BME280;51310;52.198;5.422;2023-05-21T07:54:21;101862.75;;;15.89;66.56
64844;BME280;51310;52.198;5.422;2023-05-21T07:56:46;101848.91;;;15.94;66.00
64844;BME280;51310;52.198;5.422;2023-05-21T07:59:15;101859.38;;;15.87;65.97
64844;BME280;51310;52.198;5.422;2023-05-21T08:01:41;101859.09;;;16.08;65.82
64844;BME280;51310;52.198;5.422;2023-05-21T08:04:08;101860.75;;;15.74;65.71
64844;BME280;51310;52.198;5.422;2023-05-21T08:06:34;101854.13;;;15.96;66.08
64844;BME280;51310;52.198;5.422;2023-05-21T08:09:02;101831.16;;;16.03;65.80
64844;BME280;51310;52.198;5.422;2023-05-21T08:11:28;101844.97;;;16.52;65.50
64844;BME280;51310;52.198;5.422;2023-05-21T08:13:54;101837.31;;;16.57;64.98
64844;BME280;51310;52.198;5.422;2023-05-21T08:16:21;101825.00;;;16.38;64.74
64844;BME280;51310;52.198;5.422;2023-05-21T08:18:48;101836.31;;;16.58;64.97
64844;BME280;51310;52.198;5.422;2023-05-21T08:21:15;101829.84;;;16.60;64.39
64844;BME280;51310;52.198;5.422;2023-05-21T08:23:42;101833.19;;;16.62;64.32
64844;BME280;51310;52.198;5.422;2023-05-21T08:26:07;101838.06;;;16.85;63.95
64844;BME280;51310;52.198;5.422;2023-05-21T08:28:36;101847.75;;;16.86;63.56
64844;BME280;51310;52.198;5.422;2023-05-21T08:31:02;101835.19;;;17.04;63.31
64844;BME280;51310;52.198;5.422;2023-05-21T08:33:28;101819.25;;;16.94;63.23
64844;BME280;51310;52.198;5.422;2023-05-21T08:35:54;101836.97;;;17.29;62.47
64844;BME280;51310;52.198;5.422;2023-05-21T08:38:20;101835.91;;;17.14;62.43
64844;BME280;51310;52.198;5.422;2023-05-21T08:40:46;101833.75;;;17.18;62.95
64844;BME280;51310;52.198;5.422;2023-05-21T08:43:15;101830.63;;;17.30;62.73
64844;BME280;51310;52.198;5.422;2023-05-21T08:45:44;101835.44;;;17.61;62.14
64844;BME280;51310;52.198;5.422;2023-05-21T08:48:15;101839.41;;;17.49;61.33
64844;BME280;51310;52.198;5.422;2023-05-21T08:50:42;101840.84;;;17.69;61.40
64844;BME280;51310;52.198;5.422;2023-05-21T08:53:08;101822.06;;;17.27;61.27
64844;BME280;51310;52.198;5.422;2023-05-21T08:55:35;101840.47;;;17.30;61.82
64844;BME280;51310;52.198;5.422;2023-05-21T08:58:03;101840.34;;;17.74;61.65
64844;BME280;51310;52.198;5.422;2023-05-21T09:00:29;101840.22;;;17.91;60.76
64844;BME280;51310;52.198;5.422;2023-05-21T09:02:58;101842.91;;;17.49;60.96
64844;BME280;51310;52.198;5.422;2023-05-21T09:05:27;101840.53;;;17.80;60.98
64844;BME280;51310;52.198;5.422;2023-05-21T09:08:05;101838.06;;;17.87;60.26
64844;BME280;51310;52.198;5.422;2023-05-21T09:10:41;101821.19;;;17.60;60.92
64844;BME280;51310;52.198;5.422;2023-05-21T09:13:09;101841.41;;;17.47;61.28
64844;BME280;51310;52.198;5.422;2023-05-21T09:15:35;101825.09;;;17.32;61.73
64844;BME280;51310;52.198;5.422;2023-05-21T09:18:01;101845.03;;;17.72;61.73
64844;BME280;51310;52.198;5.422;2023-05-21T09:20:28;101836.53;;;17.84;60.47
64844;BME280;51310;52.198;5.422;2023-05-21T09:22:53;101831.41;;;17.65;60.39
64844;BME280;51310;52.198;5.422;2023-05-21T09:25:23;101836.28;;;18.20;60.74
64844;BME280;51310;52.198;5.422;2023-05-21T09:27:50;101829.56;;;18.16;60.46
64844;BME280;51310;52.198;5.422;2023-05-21T09:30:17;101827.16;;;17.97;60.62
64844;BME280;51310;52.198;5.422;2023-05-21T09:32:44;101831.53;;;17.89;60.93
64844;BME280;51310;52.198;5.422;2023-05-21T09:35:13;101830.03;;;17.95;60.64
64844;BME280;51310;52.198;5.422;2023-05-21T09:40:16;101809.94;;;17.91;60.59
64844;BME280;51310;52.198;5.422;2023-05-21T09:42:54;101826.22;;;18.38;60.36
64844;BME280;51310;52.198;5.422;2023-05-21T09:45:27;101824.34;;;18.14;59.65
64844;BME280;51310;52.198;5.422;2023-05-21T09:47:54;101818.31;;;18.04;60.62
64844;BME280;51310;52.198;5.422;2023-05-21T09:50:27;101819.19;;;18.37;60.64
64844;BME280;51310;52.198;5.422;2023-05-21T09:52:54;101810.97;;;18.31;59.87
64844;BME280;51310;52.198;5.422;2023-05-21T09:55:25;101811.31;;;18.11;59.63
64844;BME280;51310;52.198;5.422;2023-05-21T09:57:52;101803.94;;;18.21;59.90
64844;BME280;51310;52.198;5.422;2023-05-21T10:00:24;101791.38;;;18.30;59.68
64844;BME280;51310;52.198;5.422;2023-05-21T10:02:57;101797.41;;;18.65;59.36
64844;BME280;51310;52.198;5.422;2023-05-21T10:05:28;101788.38;;;18.66;58.66
64844;BME280;51310;52.198;5.422;2023-05-21T10:08:00;101784.66;;;18.83;58.65
64844;BME280;51310;52.198;5.422;2023-05-21T10:10:30;101772.81;;;19.08;57.81
64844;BME280;51310;52.198;5.422;2023-05-21T10:13:07;101787.13;;;19.32;57.65
64844;BME280;51310;52.198;5.422;2023-05-21T10:15:41;101780.84;;;19.17;56.93
64844;BME280;51310;52.198;5.422;2023-05-21T10:18:09;101788.91;;;19.08;57.12
64844;BME280;51310;52.198;5.422;2023-05-21T10:20:37;101782.81;;;19.23;57.04
64844;BME280;51310;52.198;5.422;2023-05-21T10:23:04;101760.66;;;18.82;57.04
64844;BME280;51310;52.198;5.422;2023-05-21T10:25:31;101768.09;;;19.19;57.71
64844;BME280;51310;52.198;5.422;2023-05-21T10:27:57;101780.44;;;19.36;57.51
64844;BME280;51310;52.198;5.422;2023-05-21T10:30:24;101783.19;;;19.51;56.84
64844;BME280;51310;52.198;5.422;2023-05-21T10:32:50;101778.31;;;19.54;56.84
64844;BME280;51310;52.198;5.422;2023-05-21T10:35:17;101769.56;;;19.21;56.97
64844;BME280;51310;52.198;5.422;2023-05-21T10:37:44;101770.47;;;19.45;57.22
64844;BME280;51310;52.198;5.422;2023-05-21T10:40:10;101773.94;;;19.84;56.91
64844;BME280;51310;52.198;5.422;2023-05-21T10:43:12;101748.47;;;19.49;56.09
64844;BME280;51310;52.198;5.422;2023-05-21T10:51:27;101757.97;;;19.68;55.58
64844;BME280;51310;52.198;5.422;2023-05-21T10:54:40;101763.31;;;20.14;56.16
64844;BME280;51310;52.198;5.422;2023-05-21T10:57:52;101763.31;;;20.14;55.15
64844;BME280;51310;52.198;5.422;2023-05-21T11:00:24;101749.84;;;19.99;55.47
64844;BME280;51310;52.198;5.422;2023-05-21T11:02:51;101746.25;;;19.61;55.49
64844;BME280;51310;52.198;5.422;2023-05-21T11:05:55;101761.81;;;19.65;55.82
64844;BME280;51310;52.198;5.422;2023-05-21T11:08:27;101762.53;;;19.59;55.91
64844;BME280;51310;52.198;5.422;2023-05-21T11:10:57;101767.41;;;19.56;56.85
64844;BME280;51310;52.198;5.422;2023-05-21T11:13:25;101756.31;;;19.28;56.99
64844;BME280;51310;52.198;5.422;2023-05-21T11:23:53;101764.34;;;20.13;55.92
64844;BME280;51310;52.198;5.422;2023-05-21T11:26:24;101739.59;;;19.49;55.78
64844;BME280;51310;52.198;5.422;2023-05-21T11:31:33;101730.63;;;20.25;55.53
64844;BME280;51310;52.198;5.422;2023-05-21T11:34:20;101726.81;;;20.42;55.09
64844;BME280;51310;52.198;5.422;2023-05-21T11:39:47;101727.47;;;20.44;54.87
64844;BME280;51310;52.198;5.422;2023-05-21T11:42:26;101730.44;;;20.27;55.62
64844;BME280;51310;52.198;5.422;2023-05-21T11:44:56;101726.38;;;20.31;55.25
64844;BME280;51310;52.198;5.422;2023-05-21T11:47:26;101721.16;;;20.67;55.04
64844;BME280;51310;52.198;5.422;2023-05-21T11:49:52;101713.63;;;20.47;54.54
64844;BME280;51310;52.198;5.422;2023-05-21T11:52:18;101695.94;;;20.53;54.93
64844;BME280;51310;52.198;5.422;2023-05-21T11:54:52;101717.56;;;20.74;54.95
64844;BME280;51310;52.198;5.422;2023-05-21T11:57:24;101712.31;;;21.02;54.68
64844;BME280;51310;52.198;5.422;2023-05-21T11:59:51;101700.84;;;20.79;54.26
64844;BME280;51310;52.198;5.422;2023-05-21T12:02:20;101703.81;;;20.69;54.44
64844;BME280;51310;52.198;5.422;2023-05-21T12:04:48;101706.22;;;20.49;54.94
64844;BME280;51310;52.198;5.422;2023-05-21T12:07:17;101705.00;;;20.52;55.40
64844;BME280;51310;52.198;5.422;2023-05-21T12:09:50;101696.19;;;20.73;54.86
64844;BME280;51310;52.198;5.422;2023-05-21T12:12:19;101703.44;;;20.72;54.55
64844;BME280;51310;52.198;5.422;2023-05-21T12:14:50;101681.28;;;20.56;54.68
64844;BME280;51310;52.198;5.422;2023-05-21T12:17:19;101682.28;;;20.69;55.05
64844;BME280;51310;52.198;5.422;2023-05-21T12:19:50;101675.38;;;21.11;54.51
64844;BME280;51310;52.198;5.422;2023-05-21T12:22:16;101694.06;;;20.98;54.37
64844;BME280;51310;52.198;5.422;2023-05-21T12:24:42;101676.84;;;21.14;54.46
64844;BME280;51310;52.198;5.422;2023-05-21T12:27:10;101677.88;;;21.13;53.88
64844;BME280;51310;52.198;5.422;2023-05-21T12:29:39;101685.56;;;21.16;54.26
64844;BME280;51310;52.198;5.422;2023-05-21T12:32:09;101660.72;;;20.99;54.04
64844;BME280;51310;52.198;5.422;2023-05-21T12:37:14;101669.72;;;21.42;53.87
64844;BME280;51310;52.198;5.422;2023-05-21T12:39:45;101677.94;;;21.34;53.73
64844;BME280;51310;52.198;5.422;2023-05-21T12:42:12;101667.09;;;21.27;53.88
64844;BME280;51310;52.198;5.422;2023-05-21T12:44:42;101676.16;;;21.41;53.47
64844;BME280;51310;52.198;5.422;2023-05-21T12:47:10;101678.19;;;21.24;54.66
64844;BME280;51310;52.198;5.422;2023-05-21T12:49:44;101672.88;;;21.46;53.80
64844;BME280;51310;52.198;5.422;2023-05-21T12:52:14;101677.09;;;21.33;53.84
64844;BME280;51310;52.198;5.422;2023-05-21T12:54:47;101674.09;;;21.64;53.58
64844;BME280;51310;52.198;5.422;2023-05-21T12:57:15;101671.78;;;21.40;54.25
64844;BME280;51310;52.198;5.422;2023-05-21T12:59:57;101676.00;;;21.13;53.98
64844;BME280;51310;52.198;5.422;2023-05-21T13:02:31;101664.09;;;21.22;54.47
64844;BME280;51310;52.198;5.422;2023-05-21T13:05:05;101672.22;;;21.44;54.41
64844;BME280;51310;52.198;5.422;2023-05-21T13:07:34;101655.91;;;20.94;54.26
64844;BME280;51310;52.198;5.422;2023-05-21T13:10:02;101670.69;;;21.34;54.60
64844;BME280;51310;52.198;5.422;2023-05-21T13:12:30;101677.63;;;21.65;53.96
64844;BME280;51310;52.198;5.422;2023-05-21T13:14:59;101673.03;;;21.59;53.38
64844;BME280;51310;52.198;5.422;2023-05-21T13:17:27;101674.84;;;21.58;53.73
64844;BME280;51310;52.198;5.422;2023-05-21T13:22:47;101669.34;;;21.45;54.78
64844;BME280;51310;52.198;5.422;2023-05-21T13:25:19;101675.38;;;21.11;54.69
64844;BME280;51310;52.198;5.422;2023-05-21T13:27:46;101653.91;;;21.18;55.08
64844;BME280;51310;52.198;5.422;2023-05-21T13:30:13;101641.00;;;21.13;55.22